createdAt,value
2023-01-19T00:02:04.208Z,6.07
2023-01-19T00:04:30.543Z,7.00
2023-01-19T00:06:56.972Z,5.80
2023-01-19T00:09:23.366Z,6.63
2023-01-19T00:11:49.915Z,7.18
2023-01-19T00:14:16.246Z,8.50
2023-01-19T00:16:42.604Z,7.97
2023-01-19T00:19:08.983Z,8.65
2023-01-19T00:21:35.388Z,7.88
2023-01-19T00:24:01.784Z,7.53
2023-01-19T00:26:28.358Z,7.57
2023-01-19T00:28:54.786Z,7.70
2023-01-19T00:31:21.817Z,7.53
2023-01-19T00:33:49.309Z,6.78
2023-01-19T00:36:16.601Z,6.88
2023-01-19T00:38:42.972Z,5.97
2023-01-19T00:41:09.427Z,6.68
2023-01-19T00:43:35.804Z,6.95
2023-01-19T00:46:02.471Z,8.75
2023-01-19T00:48:29.663Z,7.55
2023-01-19T00:50:56.008Z,5.97
2023-01-19T00:53:22.684Z,7.18
2023-01-19T00:55:49.095Z,7.22
2023-01-19T00:58:15.530Z,7.70
2023-01-19T01:00:41.971Z,7.95
2023-01-19T01:03:08.423Z,8.13
2023-01-19T01:05:34.957Z,7.20
2023-01-19T01:08:01.328Z,7.85
2023-01-19T01:10:28.618Z,8.02
2023-01-19T01:12:58.233Z,7.97
2023-01-19T01:15:26.498Z,7.38
2023-01-19T01:17:53.012Z,7.25
2023-01-19T01:20:20.785Z,7.55
2023-01-19T01:22:48.627Z,6.32
2023-01-19T01:25:15.695Z,6.25
2023-01-19T01:27:42.449Z,5.47
2023-01-19T01:30:09.710Z,5.18
2023-01-19T01:32:36.358Z,5.72
2023-01-19T01:35:02.796Z,5.15
2023-01-19T01:37:29.475Z,4.88
2023-01-19T01:39:55.942Z,5.20
2023-01-19T01:42:26.579Z,5.20
2023-01-19T01:44:54.148Z,5.28
2023-01-19T01:47:26.527Z,5.55
2023-01-19T01:49:57.617Z,5.30
2023-01-19T01:52:25.336Z,5.70
2023-01-19T01:54:52.855Z,6.15
2023-01-19T01:57:19.400Z,5.82
2023-01-19T01:59:47.833Z,5.95
2023-01-19T02:02:41.549Z,6.05
2023-01-19T02:05:09.917Z,5.93
2023-01-19T02:07:57.971Z,5.65
2023-01-19T02:10:42.853Z,5.47
2023-01-19T02:13:21.313Z,5.35
2023-01-19T02:15:52.717Z,4.85
2023-01-19T02:18:23.667Z,4.88
2023-01-19T02:21:11.539Z,4.50
2023-01-19T02:23:40.865Z,4.22
2023-01-19T02:26:09.517Z,4.53
2023-01-19T02:28:37.231Z,4.50
2023-01-19T02:31:03.696Z,4.90
2023-01-19T02:33:30.260Z,5.40
2023-01-19T02:35:56.895Z,4.38
2023-01-19T02:38:24.969Z,5.53
2023-01-19T02:40:51.909Z,5.40
2023-01-19T02:43:19.477Z,5.75
2023-01-19T02:45:46.775Z,5.13
2023-01-19T02:48:13.281Z,5.15
2023-01-19T02:50:45.991Z,5.05
2023-01-19T02:53:18.664Z,5.30
2023-01-19T02:55:48.319Z,4.75
2023-01-19T02:58:23.964Z,4.95
2023-01-19T03:01:01.317Z,5.28
2023-01-19T03:03:46.524Z,4.93
2023-01-19T03:06:34.666Z,5.45
2023-01-19T03:09:09.439Z,4.68
2023-01-19T03:11:43.319Z,5.13
2023-01-19T03:14:12.015Z,4.97
2023-01-19T03:16:38.458Z,4.53
2023-01-19T03:19:07.725Z,5.50
2023-01-19T03:21:35.823Z,5.10
2023-01-19T03:24:03.215Z,5.43
2023-01-19T03:26:31.649Z,4.88
2023-01-19T03:28:59.178Z,5.72
2023-01-19T03:31:27.477Z,5.07
2023-01-19T03:33:55.333Z,5.15
2023-01-19T03:36:33.130Z,6.13
2023-01-19T03:39:00.552Z,5.68
2023-01-19T03:41:27.722Z,5.22
2023-01-19T03:43:55.454Z,5.75
2023-01-19T03:46:23.109Z,6.13
2023-01-19T03:48:49.887Z,5.72
2023-01-19T03:51:17.040Z,6.00
2023-01-19T03:53:43.672Z,5.43
2023-01-19T03:56:16.693Z,6.10
2023-01-19T03:58:43.188Z,5.35
2023-01-19T04:01:09.796Z,5.63
2023-01-19T04:03:36.470Z,5.38
2023-01-19T04:06:02.918Z,5.70
2023-01-19T04:08:29.319Z,5.90
2023-01-19T04:10:57.484Z,5.78
2023-01-19T04:13:23.985Z,5.45
2023-01-19T04:15:50.452Z,5.75
2023-01-19T04:18:16.840Z,5.70
2023-01-19T04:20:43.211Z,5.40
2023-01-19T04:23:09.617Z,5.07
2023-01-19T04:25:37.965Z,5.60
2023-01-19T04:28:05.184Z,5.05
2023-01-19T04:30:31.592Z,5.55
2023-01-19T04:32:59.185Z,5.90
2023-01-19T04:35:25.900Z,5.97
2023-01-19T04:37:52.299Z,5.50
2023-01-19T04:40:18.722Z,6.35
2023-01-19T04:42:45.566Z,5.28
2023-01-19T04:45:13.054Z,6.07
2023-01-19T04:47:39.553Z,5.85
2023-01-19T04:50:06.983Z,6.25
2023-01-19T04:52:36.412Z,5.90
2023-01-19T04:55:03.437Z,5.65
2023-01-19T04:57:30.370Z,5.75
2023-01-19T04:59:59.451Z,5.18
2023-01-19T05:02:26.295Z,6.07
2023-01-19T05:04:52.978Z,5.65
2023-01-19T05:07:19.475Z,5.88
2023-01-19T05:09:45.946Z,5.63
2023-01-19T05:12:12.342Z,5.38
2023-01-19T05:14:38.779Z,5.55
2023-01-19T05:17:05.250Z,5.43
2023-01-19T05:19:31.612Z,5.40
2023-01-19T05:21:58.063Z,5.35
2023-01-19T05:24:24.482Z,5.82
2023-01-19T05:26:50.859Z,6.13
2023-01-19T05:29:17.242Z,5.95
2023-01-19T05:31:46.465Z,5.72
2023-01-19T05:34:14.439Z,5.53
2023-01-19T05:36:41.144Z,6.05
2023-01-19T05:39:07.797Z,5.88
2023-01-19T05:41:34.192Z,5.45
2023-01-19T05:44:00.549Z,5.28
2023-01-19T05:46:27.136Z,5.95
2023-01-19T05:48:53.519Z,5.53
2023-01-19T05:51:19.836Z,5.55
2023-01-19T05:53:46.222Z,5.90
2023-01-19T05:56:13.019Z,5.75
2023-01-19T05:58:39.672Z,5.28
2023-01-19T06:01:07.092Z,5.65
2023-01-19T06:03:34.392Z,5.28
2023-01-19T06:06:01.381Z,5.80
2023-01-19T06:08:27.994Z,6.13
2023-01-19T06:10:54.404Z,6.93
2023-01-19T06:13:21.341Z,6.03
2023-01-19T06:15:47.761Z,6.03
2023-01-19T06:18:16.929Z,5.80
2023-01-19T06:20:43.954Z,5.25
2023-01-19T06:23:10.951Z,5.93
2023-01-19T06:25:37.509Z,6.10
2023-01-19T06:28:05.377Z,6.35
2023-01-19T06:30:31.827Z,6.75
2023-01-19T06:32:58.470Z,6.15
2023-01-19T06:35:25.004Z,6.40
2023-01-19T06:37:53.202Z,7.15
2023-01-19T06:40:19.571Z,6.20
2023-01-19T06:42:45.983Z,5.97
2023-01-19T06:45:12.343Z,6.03
2023-01-19T06:47:38.759Z,6.07
2023-01-19T06:50:05.400Z,6.13
2023-01-19T06:52:31.792Z,6.18
2023-01-19T06:54:58.608Z,6.07
2023-01-19T06:57:25.912Z,5.57
2023-01-19T06:59:52.383Z,5.53
2023-01-19T07:02:26.472Z,5.25
2023-01-19T07:04:55.051Z,5.53
2023-01-19T07:07:21.472Z,5.80
2023-01-19T07:09:48.019Z,5.57
2023-01-19T07:12:14.520Z,5.25
2023-01-19T07:14:41.047Z,5.22
2023-01-19T07:17:07.764Z,5.15
2023-01-19T07:19:35.310Z,5.72
2023-01-19T07:22:02.331Z,5.60
2023-01-19T07:24:30.555Z,5.32
2023-01-19T07:26:56.978Z,5.40
2023-01-19T07:29:23.350Z,5.43
2023-01-19T07:31:50.129Z,5.28
2023-01-19T07:34:16.969Z,4.75
2023-01-19T07:36:44.053Z,5.38
2023-01-19T07:39:10.451Z,5.05
2023-01-19T07:41:36.888Z,5.28
2023-01-19T07:44:03.395Z,5.22
2023-01-19T07:46:29.773Z,5.53
2023-01-19T07:48:57.788Z,5.57
2023-01-19T07:51:24.190Z,6.40
2023-01-19T07:53:51.115Z,5.95
2023-01-19T07:56:17.512Z,5.28
2023-01-19T07:58:43.920Z,5.47
2023-01-19T08:01:11.671Z,5.57
2023-01-19T08:03:38.533Z,5.35
2023-01-19T08:06:05.527Z,5.32
2023-01-19T08:08:32.779Z,5.93
2023-01-19T08:10:59.453Z,6.30
2023-01-19T08:13:25.990Z,6.40
2023-01-19T08:15:53.236Z,6.85
2023-01-19T08:18:20.494Z,6.38
2023-01-19T08:20:46.938Z,6.05
2023-01-19T08:23:13.383Z,6.43
2023-01-19T08:25:42.310Z,6.63
2023-01-19T08:28:09.445Z,6.53
2023-01-19T08:30:36.213Z,6.53
2023-01-19T08:33:08.132Z,6.38
2023-01-19T08:35:37.550Z,5.60
2023-01-19T08:38:07.671Z,5.93
2023-01-19T08:40:35.485Z,5.32
2023-01-19T08:43:07.817Z,5.50
2023-01-19T08:45:35.281Z,5.88
2023-01-19T08:48:02.030Z,5.40
2023-01-19T08:50:29.369Z,5.50
2023-01-19T08:52:59.941Z,5.22
2023-01-19T08:55:29.957Z,5.10
2023-01-19T08:57:57.964Z,4.95
2023-01-19T09:00:27.624Z,4.70
2023-01-19T09:02:54.423Z,4.70
2023-01-19T09:05:20.935Z,5.00
2023-01-19T09:07:48.241Z,4.78
2023-01-19T09:10:15.465Z,4.70
2023-01-19T09:12:42.124Z,4.55
2023-01-19T09:15:10.700Z,4.38
2023-01-19T09:17:37.122Z,4.68
2023-01-19T09:20:04.555Z,4.15
2023-01-19T09:22:30.887Z,4.78
2023-01-19T09:24:57.266Z,5.05
2023-01-19T09:27:24.246Z,4.45
2023-01-19T09:29:54.031Z,4.53
2023-01-19T09:32:21.072Z,4.65
2023-01-19T09:34:47.747Z,4.18
2023-01-19T09:37:16.102Z,4.65
2023-01-19T09:39:42.644Z,4.80
2023-01-19T09:42:15.247Z,4.60
2023-01-19T09:44:42.891Z,5.15
2023-01-19T09:47:16.370Z,5.03
2023-01-19T09:49:48.994Z,5.18
2023-01-19T09:52:15.566Z,5.63
2023-01-19T09:54:44.323Z,5.07
2023-01-19T09:57:18.822Z,6.20
2023-01-19T09:59:56.142Z,5.03
2023-01-19T10:06:06.781Z,5.30
2023-01-19T10:08:51.668Z,4.70
2023-01-19T10:11:41.861Z,4.28
2023-01-19T10:14:17.155Z,4.97
2023-01-19T10:16:53.418Z,5.05
2023-01-19T10:19:30.217Z,4.97
2023-01-19T10:21:58.795Z,4.93
2023-01-19T10:24:30.054Z,4.93
2023-01-19T10:26:56.892Z,4.95
2023-01-19T10:29:38.718Z,5.05
2023-01-19T10:32:09.929Z,4.68
2023-01-19T10:34:36.693Z,5.35
2023-01-19T10:37:05.560Z,5.13
2023-01-19T10:39:34.809Z,4.93
2023-01-19T10:42:03.666Z,4.80
2023-01-19T10:44:35.168Z,5.50
2023-01-19T10:47:02.183Z,5.07
2023-01-19T10:49:31.623Z,4.82
2023-01-19T10:51:58.788Z,5.47
2023-01-19T10:54:26.325Z,5.25
2023-01-19T10:56:57.687Z,4.88
2023-01-19T10:59:35.509Z,5.50
2023-01-19T11:02:17.845Z,5.32
2023-01-19T11:04:47.345Z,4.97
2023-01-19T11:07:23.711Z,5.75
2023-01-19T11:09:50.444Z,5.15
2023-01-19T11:12:18.555Z,6.00
2023-01-19T11:14:45.493Z,5.70
2023-01-19T11:17:23.038Z,5.18
2023-01-19T11:19:53.095Z,5.72
2023-01-19T11:22:26.457Z,5.25
2023-01-19T11:24:53.124Z,5.20
2023-01-19T11:27:20.441Z,5.35
2023-01-19T11:29:54.039Z,5.40
2023-01-19T11:32:22.391Z,5.57
2023-01-19T11:34:48.910Z,5.32
2023-01-19T11:37:18.415Z,5.60
2023-01-19T11:39:52.444Z,6.03
2023-01-19T11:42:19.387Z,5.90
2023-01-19T11:44:55.127Z,5.53
2023-01-19T11:47:41.819Z,5.57
2023-01-19T11:50:14.135Z,5.00
2023-01-19T11:52:49.651Z,5.82
2023-01-19T11:57:48.505Z,6.10
2023-01-19T12:00:35.580Z,5.90
2023-01-19T12:03:09.795Z,5.70
2023-01-19T12:05:37.252Z,6.10
2023-01-19T12:08:06.744Z,6.70
2023-01-19T12:10:36.388Z,5.63
2023-01-19T12:13:03.633Z,6.18
2023-01-19T12:15:36.508Z,6.20
2023-01-19T12:18:04.539Z,6.78
2023-01-19T12:20:40.357Z,5.40
2023-01-19T12:25:39.141Z,6.55
2023-01-19T12:28:09.408Z,6.50
2023-01-19T12:30:36.466Z,6.40
2023-01-19T12:33:21.559Z,5.95
2023-01-19T12:35:53.478Z,6.80
2023-01-19T12:38:43.214Z,6.32
2023-01-19T12:41:18.866Z,6.85
2023-01-19T12:43:45.335Z,6.10
2023-01-19T12:46:23.736Z,6.13
2023-01-19T12:48:50.197Z,5.80
2023-01-19T12:51:23.372Z,5.85
2023-01-19T12:53:57.792Z,6.30
2023-01-19T12:56:31.356Z,6.28
2023-01-19T12:58:57.936Z,6.65
2023-01-19T13:01:24.948Z,6.80
2023-01-19T13:04:09.356Z,7.60
2023-01-19T13:06:48.098Z,7.72
2023-01-19T13:09:30.883Z,6.82
2023-01-19T13:12:15.384Z,7.47
2023-01-19T13:14:42.403Z,6.40
2023-01-19T13:17:32.845Z,5.95
2023-01-19T13:20:18.222Z,6.60
2023-01-19T13:22:49.572Z,6.28
2023-01-19T13:25:27.564Z,5.82
2023-01-19T13:27:54.417Z,6.25
2023-01-19T13:30:22.115Z,5.35
2023-01-19T13:32:48.640Z,5.25
2023-01-19T13:35:16.643Z,4.68
2023-01-19T13:37:44.325Z,5.18
2023-01-19T13:40:25.354Z,5.40
2023-01-19T13:42:52.885Z,5.88
2023-01-19T13:45:25.258Z,5.95
2023-01-19T13:47:52.839Z,5.53
2023-01-19T13:50:23.500Z,5.32
2023-01-19T13:52:51.380Z,5.07
2023-01-19T13:55:18.657Z,5.53
2023-01-19T13:57:46.054Z,5.63
2023-01-19T14:00:12.885Z,5.28
2023-01-19T14:02:39.858Z,5.53
2023-01-19T14:05:20.079Z,5.53
2023-01-19T14:07:46.630Z,5.10
2023-01-19T14:10:14.401Z,5.43
2023-01-19T14:12:54.481Z,5.40
2023-01-19T14:15:25.234Z,5.40
2023-01-19T14:18:09.785Z,5.75
2023-01-19T14:20:39.129Z,4.43
2023-01-19T14:23:06.402Z,5.28
2023-01-19T14:25:34.004Z,5.45
2023-01-19T14:28:22.125Z,5.00
2023-01-19T14:31:01.080Z,4.95
2023-01-19T14:33:36.940Z,5.22
2023-01-19T14:36:10.655Z,5.35
2023-01-19T14:38:39.420Z,5.22
2023-01-19T14:41:06.373Z,4.57
2023-01-19T14:43:33.111Z,4.65
2023-01-19T14:45:59.524Z,3.90
2023-01-19T14:48:29.224Z,4.63
2023-01-19T14:51:04.026Z,4.63
2023-01-19T14:53:36.865Z,4.72
2023-01-19T14:56:07.330Z,4.68
2023-01-19T14:58:37.927Z,5.80
2023-01-19T15:01:07.914Z,5.40
2023-01-19T15:03:44.395Z,5.05
2023-01-19T15:06:16.013Z,5.45
2023-01-19T15:08:42.864Z,5.30
2023-01-19T15:11:16.367Z,5.43
2023-01-19T15:13:46.159Z,4.60
2023-01-19T15:16:12.741Z,5.18
2023-01-19T15:18:39.213Z,5.10
2023-01-19T15:21:05.779Z,4.93
2023-01-19T15:23:34.737Z,5.38
2023-01-19T15:26:02.269Z,5.05
2023-01-19T15:28:28.705Z,4.93
2023-01-19T15:30:55.501Z,4.07
2023-01-19T15:33:22.910Z,4.57
2023-01-19T15:35:49.788Z,3.95
2023-01-19T15:38:16.227Z,4.20
2023-01-19T15:40:42.623Z,4.38
2023-01-19T15:43:11.825Z,4.35
2023-01-19T15:45:53.500Z,4.30
2023-01-19T15:48:20.449Z,4.57
2023-01-19T15:50:47.777Z,4.78
2023-01-19T15:53:18.253Z,4.40
2023-01-19T15:55:45.016Z,4.47
2023-01-19T15:58:13.872Z,4.22
2023-01-19T16:00:40.873Z,4.28
2023-01-19T16:03:07.483Z,4.05
2023-01-19T16:05:42.658Z,4.38
2023-01-19T16:08:10.819Z,4.50
2023-01-19T16:10:39.977Z,4.10
2023-01-19T16:13:06.462Z,3.95
2023-01-19T16:15:34.221Z,3.90
2023-01-19T16:18:02.758Z,4.38
2023-01-19T16:20:29.209Z,4.50
2023-01-19T16:22:58.579Z,4.22
2023-01-19T16:25:34.126Z,4.20
2023-01-19T16:28:00.560Z,4.22
2023-01-19T16:30:26.991Z,3.85
2023-01-19T16:32:58.363Z,4.28
2023-01-19T16:35:34.945Z,4.43
2023-01-19T16:38:01.625Z,3.95
2023-01-19T16:40:28.087Z,4.53
2023-01-19T16:42:54.501Z,4.68
2023-01-19T16:45:20.870Z,4.50
2023-01-19T16:47:50.608Z,4.75
2023-01-19T16:50:17.011Z,4.57
2023-01-19T16:52:43.587Z,4.82
2023-01-19T16:55:11.339Z,4.45
2023-01-19T16:57:39.015Z,4.65
2023-01-19T17:00:06.714Z,4.07
2023-01-19T17:02:33.142Z,4.53
2023-01-19T17:05:00.288Z,4.20
2023-01-19T17:07:29.196Z,4.45
2023-01-19T17:09:59.003Z,4.65
2023-01-19T17:12:25.550Z,4.75
2023-01-19T17:14:52.046Z,4.20
2023-01-19T17:17:18.471Z,4.65
2023-01-19T17:19:45.177Z,4.70
2023-01-19T17:22:12.904Z,4.80
2023-01-19T17:24:42.435Z,4.90
2023-01-19T17:27:09.171Z,4.57
2023-01-19T17:29:38.790Z,4.18
2023-01-19T17:32:05.446Z,4.97
2023-01-19T17:34:32.025Z,4.65
2023-01-19T17:37:02.981Z,4.93
2023-01-19T17:39:29.559Z,4.30
2023-01-19T17:41:55.887Z,5.30
2023-01-19T17:44:22.210Z,4.97
2023-01-19T17:46:48.901Z,4.88
2023-01-19T17:49:15.339Z,5.28
2023-01-19T17:51:41.735Z,5.50
2023-01-19T17:54:08.314Z,5.60
2023-01-19T17:56:37.506Z,5.85
2023-01-19T17:59:05.381Z,5.38
2023-01-19T18:01:33.341Z,5.78
2023-01-19T18:04:00.659Z,5.90
2023-01-19T18:06:27.059Z,6.03
2023-01-19T18:08:54.064Z,5.70
2023-01-19T18:11:21.267Z,5.15
2023-01-19T18:13:48.550Z,5.75
2023-01-19T18:16:16.468Z,5.93
2023-01-19T18:18:44.060Z,5.57
2023-01-19T18:21:12.336Z,6.03
2023-01-19T18:23:38.880Z,5.80
2023-01-19T18:26:06.726Z,5.43
2023-01-19T18:28:33.571Z,5.65
2023-01-19T18:31:00.005Z,5.75
2023-01-19T18:33:27.559Z,5.90
2023-01-19T18:35:54.374Z,6.15
2023-01-19T18:38:21.039Z,5.50
2023-01-19T18:40:47.364Z,5.85
2023-01-19T18:43:13.834Z,5.35
2023-01-19T18:45:41.963Z,5.85
2023-01-19T18:48:09.149Z,6.47
2023-01-19T18:50:35.601Z,5.93
2023-01-19T18:53:01.945Z,6.75
2023-01-19T18:55:28.631Z,5.40
2023-01-19T18:57:54.995Z,6.47
2023-01-19T19:00:21.428Z,6.00
2023-01-19T19:02:47.916Z,6.75
2023-01-19T19:05:14.279Z,6.30
2023-01-19T19:07:40.728Z,5.80
2023-01-19T19:10:07.501Z,7.28
2023-01-19T19:12:33.889Z,6.60
2023-01-19T19:15:00.285Z,6.97
2023-01-19T19:17:27.176Z,6.70
2023-01-19T19:19:53.553Z,6.47
2023-01-19T19:22:19.989Z,7.30
2023-01-19T19:24:46.563Z,7.28
2023-01-19T19:27:14.372Z,7.00
2023-01-19T19:29:41.176Z,7.10
2023-01-19T19:32:07.898Z,6.90
2023-01-19T19:34:34.427Z,6.88
2023-01-19T19:37:01.456Z,7.20
2023-01-19T19:39:28.254Z,6.82
2023-01-19T19:41:54.613Z,7.28
2023-01-19T19:44:21.062Z,7.53
2023-01-19T19:46:47.436Z,8.82
2023-01-19T19:49:13.766Z,8.38
2023-01-19T19:51:40.121Z,9.10
2023-01-19T19:54:06.476Z,9.05
2023-01-19T19:56:34.406Z,8.82
2023-01-19T19:59:00.879Z,9.55
2023-01-19T20:01:32.532Z,9.85
2023-01-19T20:04:03.458Z,10.13
2023-01-19T20:06:29.906Z,9.80
2023-01-19T20:08:56.778Z,10.55
2023-01-19T20:11:25.480Z,9.65
2023-01-19T20:13:51.840Z,10.27
2023-01-19T20:16:19.375Z,10.23
2023-01-19T20:18:51.390Z,10.65
2023-01-19T20:21:19.259Z,10.13
2023-01-19T20:23:45.973Z,10.80
2023-01-19T20:26:14.110Z,10.68
2023-01-19T20:28:40.525Z,9.77
2023-01-19T20:31:12.776Z,10.10
2023-01-19T20:33:39.599Z,10.30
2023-01-19T20:36:06.187Z,10.73
2023-01-19T20:38:32.897Z,11.80
2023-01-19T20:40:59.256Z,11.07
2023-01-19T20:43:25.630Z,10.30
2023-01-19T20:45:52.688Z,11.82
2023-01-19T20:48:19.135Z,11.38
2023-01-19T20:50:45.593Z,11.50
2023-01-19T20:53:12.046Z,11.52
2023-01-19T20:55:38.413Z,11.90
2023-01-19T20:58:05.014Z,12.20
2023-01-19T21:00:31.571Z,11.38
2023-01-19T21:02:58.219Z,11.00
2023-01-19T21:05:24.734Z,10.80
2023-01-19T21:07:51.202Z,10.13
2023-01-19T21:10:17.650Z,11.35
2023-01-19T21:12:44.567Z,11.75
2023-01-19T21:15:11.440Z,11.88
2023-01-19T21:17:37.940Z,12.52
2023-01-19T21:20:04.632Z,11.20
2023-01-19T21:22:31.007Z,11.93
2023-01-19T21:24:57.408Z,11.73
2023-01-19T21:27:26.846Z,11.65
2023-01-19T21:29:53.273Z,11.90
2023-01-19T21:32:20.125Z,12.05
2023-01-19T21:34:46.631Z,11.70
2023-01-19T21:37:12.992Z,11.20
2023-01-19T21:39:39.405Z,11.80
2023-01-19T21:42:05.764Z,11.23
2023-01-19T21:44:32.249Z,12.23
2023-01-19T21:46:58.623Z,11.95
2023-01-19T21:49:25.011Z,12.23
2023-01-19T21:51:51.471Z,12.43
2023-01-19T21:54:18.337Z,12.15
2023-01-19T21:56:44.718Z,13.73
2023-01-19T21:59:14.876Z,12.30
2023-01-19T22:01:41.941Z,11.70
2023-01-19T22:04:08.637Z,12.20
2023-01-19T22:06:35.144Z,11.45
2023-01-19T22:09:01.553Z,11.43
2023-01-19T22:11:28.733Z,12.50
2023-01-19T22:13:55.185Z,11.40
2023-01-19T22:16:22.746Z,11.73
2023-01-19T22:18:51.041Z,12.20
2023-01-19T22:21:19.916Z,11.88
2023-01-19T22:23:54.723Z,11.32
2023-01-19T22:26:21.379Z,12.20
2023-01-19T22:28:47.926Z,13.23
2023-01-19T22:31:16.665Z,11.77
2023-01-19T22:33:43.536Z,12.85
2023-01-19T22:36:14.821Z,13.45
2023-01-19T22:38:41.519Z,12.65
2023-01-19T22:41:11.864Z,13.10
2023-01-19T22:43:38.379Z,13.32
2023-01-19T22:46:06.189Z,12.60
2023-01-19T22:48:34.263Z,13.05
2023-01-19T22:51:00.784Z,11.82
2023-01-19T22:53:27.115Z,11.48
2023-01-19T22:55:53.549Z,12.25
2023-01-19T22:58:21.519Z,12.60
2023-01-19T23:00:47.957Z,11.38
2023-01-19T23:03:14.306Z,11.85
2023-01-19T23:05:40.735Z,13.30
2023-01-19T23:08:07.156Z,13.25
2023-01-19T23:10:34.877Z,12.88
2023-01-19T23:13:04.254Z,12.65
2023-01-19T23:15:32.331Z,12.95
2023-01-19T23:17:58.915Z,12.88
2023-01-19T23:20:25.255Z,13.32
2023-01-19T23:22:51.578Z,13.35
2023-01-19T23:25:17.989Z,12.82
2023-01-19T23:27:44.364Z,14.15
2023-01-19T23:30:11.222Z,13.20
2023-01-19T23:32:37.588Z,13.75
2023-01-19T23:35:04.000Z,13.40
2023-01-19T23:37:31.404Z,12.02
2023-01-19T23:39:57.767Z,12.77
2023-01-19T23:42:24.142Z,12.75
2023-01-19T23:44:50.761Z,12.27
2023-01-19T23:47:17.138Z,12.55
2023-01-19T23:49:43.556Z,12.63
2023-01-19T23:52:09.942Z,11.65
2023-01-19T23:54:36.375Z,12.45
2023-01-19T23:57:02.820Z,12.35
2023-01-19T23:59:29.195Z,12.68
